Time;durP1;ratioP1;P1;durP2;ratioP2;P2;SDS_P1;SDS_P2;PMS_P1;PMS_P2;Temp;Humidity;BMP_temperature;BMP_pressure;BME280_temperature;BME280_humidity;BME280_pressure;Samples;Min_cycle;Max_cycle;Signal;HPM_P1;HPM_P2
2023/12/30 13:01:03;;;;;;;18.23;3.30;;;;;;;8.50;100.00;101086.88;5271948;28;20753;-73
2023/12/30 13:03:34;;;;;;;16.63;4.20;;;;;;;8.52;100.00;101087.66;5266752;28;20486;-71
2023/12/30 13:06:12;;;;;;;21.70;4.23;;;;;;;8.62;100.00;101073.28;5264139;28;20013;-71
2023/12/30 13:08:45;;;;;;;11.93;3.23;;;;;;;8.66;100.00;101059.13;5258459;28;20032;-69
2023/12/30 13:11:25;;;;;;;18.60;5.53;;;;;;;8.71;100.00;101056.28;5262497;28;20033;-70
2023/12/30 13:13:56;;;;;;;13.77;4.13;;;;;;;8.88;100.00;101063.34;5250778;28;20044;-70
2023/12/30 13:16:27;;;;;;;14.27;4.10;;;;;;;8.89;100.00;101065.00;5260079;28;20029;-70
2023/12/30 13:18:59;;;;;;;11.43;2.53;;;;;;;8.95;100.00;101061.25;5250940;28;20025;-70
2023/12/30 13:21:31;;;;;;;13.83;4.03;;;;;;;8.96;100.00;101060.31;5254626;28;20028;-70
2023/12/30 13:24:04;;;;;;;18.70;5.43;;;;;;;8.98;100.00;101058.50;5256740;28;20021;-70
2023/12/30 13:26:36;;;;;;;12.37;3.70;;;;;;;8.91;100.00;101042.28;5256323;28;20017;-70
2023/12/30 13:29:07;;;;;;;13.93;2.90;;;;;;;8.94;100.00;101044.72;5257154;28;20032;-70
2023/12/30 13:31:39;;;;;;;12.63;3.87;;;;;;;8.99;100.00;101049.72;5259222;28;20021;-72
2023/12/30 13:34:12;;;;;;;11.87;3.10;;;;;;;9.01;100.00;101041.81;5267656;28;20020;-70
2023/12/30 13:36:43;;;;;;;10.97;2.80;;;;;;;9.01;100.00;101050.50;5268216;28;20119;-69
2023/12/30 13:39:15;;;;;;;15.07;4.77;;;;;;;9.01;100.00;101031.34;5255607;28;20539;-70
2023/12/30 13:41:46;;;;;;;17.87;5.07;;;;;;;9.03;100.00;101040.81;5249096;28;20025;-69
2023/12/30 13:44:18;;;;;;;11.13;3.17;;;;;;;8.95;100.00;101025.50;5250445;28;20364;-70
2023/12/30 13:52:26;;;;;;;10.43;2.50;;;;;;;9.06;100.00;101016.28;5248538;28;20053;-69
2023/12/30 13:54:58;;;;;;;14.10;3.20;;;;;;;9.03;100.00;101024.28;5253562;28;20025;-71
2023/12/30 13:57:31;;;;;;;9.63;2.97;;;;;;;9.04;100.00;101016.38;5250778;28;20475;-70
2023/12/30 14:00:06;;;;;;;9.50;2.53;;;;;;;9.10;100.00;101020.44;5260765;28;20090;-71
2023/12/30 14:02:42;;;;;;;7.78;2.25;;;;;;;9.11;100.00;101016.91;5258998;28;20373;-70
2023/12/30 14:05:19;;;;;;;9.87;2.77;;;;;;;9.04;100.00;101015.53;5252270;28;20451;-71
2023/12/30 14:07:51;;;;;;;7.47;2.50;;;;;;;9.12;100.00;101018.59;5256922;28;20025;-70
2023/12/30 14:10:25;;;;;;;13.37;2.90;;;;;;;9.08;100.00;101011.84;5252980;28;20057;-71
2023/12/30 14:13:00;;;;;;;14.68;3.22;;;;;;;9.02;100.00;101010.41;5248671;28;20053;-70
2023/12/30 14:15:34;;;;;;;14.53;2.97;;;;;;;9.10;100.00;101003.91;5240404;28;20036;-71
2023/12/30 14:18:05;;;;;;;9.67;2.90;;;;;;;9.00;100.00;101003.53;5236461;28;20029;-73
2023/12/30 14:20:36;;;;;;;12.73;2.80;;;;;;;9.10;100.00;100996.06;5236144;28;20096;-69
2023/12/30 14:23:08;;;;;;;11.80;2.63;;;;;;;8.95;100.00;100986.31;5252998;28;20025;-71
2023/12/30 14:25:41;;;;;;;7.30;2.40;;;;;;;9.04;100.00;100992.03;5256895;28;20025;-71
2023/12/30 14:28:12;;;;;;;9.93;2.03;;;;;;;9.04;100.00;100984.19;5255494;28;20036;-70
2023/12/30 14:30:44;;;;;;;6.90;1.77;;;;;;;9.02;100.00;100979.06;5256621;28;20029;-70
2023/12/30 14:33:16;;;;;;;7.87;2.37;;;;;;;9.04;100.00;100987.63;5256030;28;20025;-71
2023/12/30 14:35:47;;;;;;;11.70;2.50;;;;;;;9.15;100.00;100981.00;5256091;28;20044;-70
2023/12/30 14:38:18;;;;;;;11.47;2.50;;;;;;;9.11;100.00;100982.94;5255071;28;20091;-70
2023/12/30 14:40:49;;;;;;;10.27;2.60;;;;;;;9.10;100.00;100978.63;5257091;28;20036;-70
2023/12/30 14:43:21;;;;;;;8.77;2.50;;;;;;;9.07;100.00;100981.41;5256269;28;20039;-71
2023/12/30 14:45:52;;;;;;;10.13;3.00;;;;;;;9.03;100.00;100962.44;5246041;28;20055;-76
2023/12/30 14:48:23;;;;;;;8.70;2.60;;;;;;;9.03;100.00;100972.88;5246434;28;20698;-74
2023/12/30 14:50:55;;;;;;;8.40;2.37;;;;;;;9.04;100.00;100971.13;5241924;28;20059;-75
2023/12/30 14:53:26;;;;;;;7.57;1.97;;;;;;;9.02;100.00;100975.59;5249623;28;20025;-75
2023/12/30 14:55:58;;;;;;;11.70;2.33;;;;;;;9.11;100.00;100977.69;5247221;28;20029;-77
2023/12/30 14:58:29;;;;;;;10.33;2.37;;;;;;;9.07;100.00;100968.34;5234381;28;20092;-72
2023/12/30 15:01:00;;;;;;;9.70;2.53;;;;;;;9.06;100.00;100966.66;5236621;28;20041;-72
2023/12/30 15:03:31;;;;;;;6.63;1.70;;;;;;;9.06;100.00;100972.72;5248932;28;20025;-72
2023/12/30 15:06:03;;;;;;;9.47;2.40;;;;;;;9.09;100.00;100969.13;5234477;28;20049;-75
2023/12/30 15:08:34;;;;;;;5.43;2.37;;;;;;;9.03;100.00;100954.59;5237342;28;20044;-73
2023/12/30 15:11:05;;;;;;;9.13;2.13;;;;;;;9.00;100.00;100941.69;5236203;28;20060;-74
2023/12/30 15:13:38;;;;;;;9.40;2.50;;;;;;;9.04;100.00;100958.06;5248967;28;20047;-72
2023/12/30 15:16:09;;;;;;;8.70;2.00;;;;;;;8.97;100.00;100941.88;5233815;28;20036;-72
2023/12/30 15:18:40;;;;;;;9.93;2.83;;;;;;;9.05;100.00;100946.69;5251846;28;20029;-72
2023/12/30 15:21:11;;;;;;;8.70;2.07;;;;;;;9.07;100.00;100944.84;5254084;28;20029;-74
2023/12/30 15:23:43;;;;;;;9.00;2.40;;;;;;;9.07;100.00;100952.69;5246591;28;20040;-73
2023/12/30 15:26:14;;;;;;;15.53;5.57;;;;;;;9.05;100.00;100938.84;5268955;28;20024;-74
2023/12/30 15:28:45;;;;;;;7.37;2.10;;;;;;;9.05;100.00;100938.84;5250147;28;20033;-75
2023/12/30 15:31:16;;;;;;;8.33;2.07;;;;;;;8.78;100.00;100889.72;5241473;28;20065;-72
2023/12/30 15:33:48;;;;;;;8.50;2.40;;;;;;;9.08;100.00;100943.91;5248285;28;20507;-72
2023/12/30 15:36:21;;;;;;;8.37;2.30;;;;;;;8.98;100.00;100927.00;5243991;28;20079;-72
2023/12/30 15:38:53;;;;;;;7.23;2.10;;;;;;;9.07;100.00;100931.78;5247593;28;20068;-72
2023/12/30 15:41:24;;;;;;;8.43;1.97;;;;;;;9.03;100.00;100935.47;5243382;28;20099;-72
2023/12/30 15:43:56;;;;;;;9.13;2.00;;;;;;;9.06;100.00;100943.13;5242233;28;20025;-72
2023/12/30 15:46:27;;;;;;;6.60;2.17;;;;;;;9.01;100.00;100942.53;5242749;28;20058;-70
2023/12/30 15:48:59;;;;;;;8.83;1.90;;;;;;;9.03;100.00;100933.69;5233817;28;20060;-69
2023/12/30 15:51:30;;;;;;;5.43;1.70;;;;;;;9.00;100.00;100936.47;5245513;28;20083;-69
2023/12/30 15:54:01;;;;;;;7.70;2.87;;;;;;;9.03;100.00;100932.84;5244313;28;20028;-71
2023/12/30 15:56:33;;;;;;;5.73;1.80;;;;;;;9.13;100.00;100925.41;5247957;28;20033;-71
2023/12/30 15:59:04;;;;;;;6.70;2.10;;;;;;;9.08;100.00;100923.84;5234078;28;20041;-71
2023/12/30 16:01:35;;;;;;;8.30;1.60;;;;;;;9.02;100.00;100931.16;5253997;28;20032;-70
2023/12/30 16:04:08;;;;;;;9.00;2.30;;;;;;;8.99;100.00;100923.50;5244446;28;20028;-70
2023/12/30 16:06:40;;;;;;;7.47;2.07;;;;;;;9.03;100.00;100922.41;5236615;28;20020;-71
2023/12/30 16:09:12;;;;;;;5.43;2.10;;;;;;;9.02;100.00;100928.56;5239838;28;20040;-70
2023/12/30 16:11:43;;;;;;;6.57;1.97;;;;;;;9.00;100.00;100914.72;5237005;28;20025;-70
2023/12/30 16:14:14;;;;;;;9.20;2.40;;;;;;;9.02;100.00;100911.13;5237719;28;20022;-71
2023/12/30 16:16:46;;;;;;;12.23;3.20;;;;;;;8.98;100.00;100917.41;5240567;28;20108;-70
2023/12/30 16:19:19;;;;;;;7.00;2.20;;;;;;;9.08;100.00;100916.00;5251538;28;20025;-70
2023/12/30 16:21:50;;;;;;;4.50;1.77;;;;;;;9.03;100.00;100910.19;5254470;28;20032;-70
2023/12/30 16:24:21;;;;;;;11.17;2.60;;;;;;;9.07;100.00;100903.03;5253349;28;20029;-71
2023/12/30 16:26:53;;;;;;;9.57;2.43;;;;;;;9.03;100.00;100899.75;5254772;28;20031;-70
2023/12/30 16:29:24;;;;;;;8.30;2.30;;;;;;;9.05;100.00;100894.44;5254187;28;20307;-71
2023/12/30 16:31:56;;;;;;;6.03;1.93;;;;;;;9.02;100.00;100902.44;5257795;28;20029;-70
2023/12/30 16:34:27;;;;;;;6.37;1.77;;;;;;;9.06;100.00;100903.94;5251222;28;20047;-70
2023/12/30 16:36:59;;;;;;;5.67;2.20;;;;;;;9.02;100.00;100900.69;5254326;28;20029;-71
2023/12/30 16:39:30;;;;;;;6.67;1.53;;;;;;;9.05;100.00;100905.72;5241930;28;20038;-71
2023/12/30 16:42:01;;;;;;;8.03;2.97;;;;;;;9.06;100.00;100907.41;5253967;28;20025;-70
2023/12/30 16:44:33;;;;;;;7.23;2.27;;;;;;;8.98;100.00;100895.66;5254121;28;20029;-70
2023/12/30 16:47:04;;;;;;;7.13;2.40;;;;;;;9.10;100.00;100909.84;5254420;28;20036;-71
2023/12/30 16:49:35;;;;;;;8.00;1.83;;;;;;;8.95;100.00;100881.84;5252050;28;20082;-71
2023/12/30 16:52:07;;;;;;;8.83;1.97;;;;;;;9.01;100.00;100901.59;5253995;28;20481;-71
2023/12/30 16:54:38;;;;;;;7.90;2.47;;;;;;;9.03;100.00;100909.34;5251541;28;20021;-71
2023/12/30 16:57:09;;;;;;;5.37;1.60;;;;;;;9.01;100.00;100900.72;5255946;28;20033;-71
2023/12/30 16:59:41;;;;;;;7.70;1.87;;;;;;;9.03;100.00;100898.88;5253756;28;20037;-71
2023/12/30 17:02:12;;;;;;;8.10;2.57;;;;;;;9.01;100.00;100905.94;5252944;28;20502;-71
2023/12/30 17:04:43;;;;;;;5.60;2.20;;;;;;;9.02;100.00;100894.59;5252590;28;20047;-72
2023/12/30 17:07:15;;;;;;;6.83;3.23;;;;;;;8.87;100.00;100878.78;5252151;28;20025;-71
2023/12/30 17:09:46;;;;;;;7.97;2.03;;;;;;;9.01;100.00;100900.72;5252625;28;20047;-71
2023/12/30 17:12:17;;;;;;;6.40;1.93;;;;;;;8.91;100.00;100885.56;5253064;28;20517;-72
2023/12/30 17:14:49;;;;;;;5.10;1.90;;;;;;;8.95;100.00;100892.28;5253323;28;20033;-71
2023/12/30 17:17:20;;;;;;;4.80;1.90;;;;;;;8.98;100.00;100896.53;5252787;28;20032;-72
2023/12/30 17:19:51;;;;;;;6.40;1.63;;;;;;;9.02;100.00;100899.81;5251935;28;20033;-71
2023/12/30 17:22:22;;;;;;;7.70;1.60;;;;;;;8.95;100.00;100892.28;5252106;28;20041;-72
2023/12/30 17:24:54;;;;;;;6.27;1.43;;;;;;;8.99;100.00;100895.59;5253151;28;20017;-71
2023/12/30 17:27:26;;;;;;;9.10;2.10;;;;;;;8.95;100.00;100887.06;5244874;28;20037;-71
2023/12/30 17:29:57;;;;;;;6.17;2.27;;;;;;;8.90;100.00;100885.63;5241006;28;20032;-71
2023/12/30 17:32:30;;;;;;;7.47;2.13;;;;;;;8.93;100.00;100891.56;5234038;28;20029;-73
2023/12/30 17:35:01;;;;;;;2.87;1.53;;;;;;;8.96;100.00;100893.13;5242981;28;20013;-72
2023/12/30 17:37:33;;;;;;;6.43;1.63;;;;;;;8.98;100.00;100890.44;5247171;28;20539;-72
2023/12/30 17:40:05;;;;;;;3.73;1.63;;;;;;;8.97;100.00;100883.53;5242762;28;20037;-72
2023/12/30 17:42:36;;;;;;;6.63;2.07;;;;;;;8.92;100.00;100882.00;5246817;28;20030;-72
2023/12/30 17:45:08;;;;;;;6.47;2.17;;;;;;;8.97;100.00;100880.94;5244263;28;20036;-72
2023/12/30 17:47:40;;;;;;;8.73;2.60;;;;;;;8.94;100.00;100874.94;5243270;28;20543;-72
2023/12/30 17:50:11;;;;;;;5.50;1.63;;;;;;;8.97;100.00;100878.31;5252635;28;20112;-71
2023/12/30 17:52:42;;;;;;;5.97;2.57;;;;;;;8.85;100.00;100869.38;5246346;28;20037;-71
2023/12/30 17:55:14;;;;;;;5.40;1.57;;;;;;;8.87;100.00;100857.91;5249327;28;20078;-71
2023/12/30 17:57:45;;;;;;;7.63;1.83;;;;;;;8.97;100.00;100875.72;5252098;28;20078;-71
2023/12/30 18:00:16;;;;;;;7.30;1.60;;;;;;;8.99;100.00;100873.88;5253369;28;20049;-71
2023/12/30 18:02:48;;;;;;;6.17;1.50;;;;;;;8.91;100.00;100864.66;5255559;28;20555;-71
2023/12/30 18:05:19;;;;;;;7.00;1.73;;;;;;;8.94;100.00;100867.09;5240457;28;20032;-71
2023/12/30 18:07:51;;;;;;;7.40;1.90;;;;;;;8.97;100.00;100866.13;5239426;28;20523;-71
2023/12/30 18:10:22;;;;;;;5.40;1.83;;;;;;;8.95;100.00;100863.56;5252774;28;20060;-71
2023/12/30 18:12:53;;;;;;;5.80;1.40;;;;;;;8.96;100.00;100853.97;5253868;28;20024;-71
2023/12/30 18:15:26;;;;;;;5.97;2.43;;;;;;;9.02;100.00;100858.88;5255899;28;20043;-71
2023/12/30 18:17:58;;;;;;;6.13;1.63;;;;;;;9.02;100.00;100842.34;5253204;28;20119;-72
2023/12/30 18:20:29;;;;;;;6.17;1.60;;;;;;;8.99;100.00;100839.91;5246811;28;20039;-73
2023/12/30 18:23:00;;;;;;;5.97;1.57;;;;;;;8.98;100.00;100838.19;5246112;28;20090;-73
2023/12/30 18:25:32;;;;;;;13.43;4.07;;;;;;;8.98;100.00;100826.00;5251166;28;20101;-73
2023/12/30 18:28:03;;;;;;;7.23;2.57;;;;;;;8.98;100.00;100822.53;5249718;28;20029;-73
2023/12/30 18:30:35;;;;;;;7.00;2.67;;;;;;;8.96;100.00;100833.06;5254115;28;20118;-73
2023/12/30 18:33:06;;;;;;;7.97;3.43;;;;;;;8.95;100.00;100829.59;5251140;28;20368;-73
2023/12/30 18:35:37;;;;;;;5.80;3.00;;;;;;;8.94;100.00;100822.69;5251208;28;20033;-72
2023/12/30 18:38:08;;;;;;;6.30;3.83;;;;;;;8.96;100.00;100817.38;5248481;28;20094;-73
2023/12/30 18:40:42;;;;;;;9.07;4.03;;;;;;;8.97;100.00;100820.84;5251688;28;20463;-74
2023/12/30 18:43:13;;;;;;;9.30;5.00;;;;;;;8.98;100.00;100820.78;5252546;28;20035;-73
2023/12/30 18:45:44;;;;;;;14.47;7.47;;;;;;;8.94;100.00;100822.69;5255163;28;20380;-73
2023/12/30 18:48:17;;;;;;;6.40;2.27;;;;;;;9.01;100.00;100825.81;5249575;28;20056;-73
2023/12/30 18:50:48;;;;;;;3.77;1.97;;;;;;;8.97;100.00;100828.69;5254016;28;20044;-73
2023/12/30 18:53:20;;;;;;;4.70;1.87;;;;;;;8.94;100.00;100807.03;5250964;28;20037;-75
2023/12/30 18:55:51;;;;;;;4.87;1.63;;;;;;;8.91;100.00;100812.41;5252224;28;20021;-73
2023/12/30 18:58:23;;;;;;;8.73;2.10;;;;;;;8.77;100.00;100796.63;5253024;28;20032;-73
2023/12/30 19:00:56;;;;;;;6.23;2.87;;;;;;;8.77;100.00;100796.63;5250687;28;20980;-74
2023/12/30 19:03:27;;;;;;;8.13;2.60;;;;;;;8.69;100.00;100795.25;5252369;28;20021;-71
2023/12/30 19:05:58;;;;;;;8.53;2.00;;;;;;;8.71;100.00;100803.00;5249072;28;20028;-72
2023/12/30 19:08:31;;;;;;;7.40;2.20;;;;;;;8.77;100.00;100804.47;5253644;28;20029;-72
2023/12/30 19:11:03;;;;;;;8.20;4.60;;;;;;;8.67;100.00;100789.31;5247500;28;20103;-72
2023/12/30 19:13:35;;;;;;;9.00;5.10;;;;;;;8.73;100.00;100789.91;5242701;28;20025;-72
2023/12/30 19:16:06;;;;;;;5.13;3.00;;;;;;;8.59;100.00;100775.78;5243018;28;20036;-71
2023/12/30 19:18:37;;;;;;;5.60;2.70;;;;;;;8.63;100.00;100760.81;5248778;28;20029;-71
2023/12/30 19:21:08;;;;;;;5.63;2.57;;;;;;;8.68;100.00;100750.97;5238514;28;20029;-71
2023/12/30 19:23:40;;;;;;;5.00;2.10;;;;;;;8.62;100.00;100739.09;5247806;28;20029;-71
2023/12/30 19:26:11;;;;;;;6.27;2.47;;;;;;;8.55;100.00;100741.16;5249423;28;20028;-72
2023/12/30 19:28:42;;;;;;;5.67;3.07;;;;;;;8.52;100.00;100723.03;5253985;28;20033;-71
2023/12/30 19:31:14;;;;;;;6.53;2.80;;;;;;;8.47;100.00;100741.56;5252485;28;20043;-72
2023/12/30 19:33:45;;;;;;;5.53;2.23;;;;;;;8.53;100.00;100734.31;5252914;28;20214;-74
2023/12/30 19:36:16;;;;;;;6.67;2.60;;;;;;;8.51;100.00;100737.03;5239545;28;20091;-74
2023/12/30 19:38:47;;;;;;;6.97;3.60;;;;;;;8.48;100.00;100742.41;5245146;28;20037;-72
2023/12/30 19:41:19;;;;;;;6.87;2.43;;;;;;;8.44;100.00;100739.13;5243696;28;20033;-72
2023/12/30 19:43:50;;;;;;;4.57;2.17;;;;;;;8.43;100.00;100726.97;5247736;28;20037;-73
2023/12/30 19:46:23;;;;;;;5.43;2.07;;;;;;;8.41;100.00;100725.38;5250367;28;20679;-74
2023/12/30 19:48:54;;;;;;;5.07;1.70;;;;;;;8.41;100.00;100726.19;5243960;28;20075;-72
2023/12/30 19:51:28;;;;;;;5.77;2.33;;;;;;;8.41;100.00;100720.97;5248786;28;20033;-74
2023/12/30 19:54:00;;;;;;;7.45;3.58;;;;;;;8.44;100.00;100715.63;5247905;28;20453;-73
2023/12/30 19:56:32;;;;;;;4.40;2.33;;;;;;;8.44;100.00;100705.19;5248266;28;20048;-73
2023/12/30 19:59:03;;;;;;;4.17;1.80;;;;;;;8.46;100.00;100692.91;5249182;28;20064;-73
2023/12/30 20:01:34;;;;;;;4.23;2.13;;;;;;;8.47;100.00;100699.78;5245795;28;20082;-73
2023/12/30 20:04:05;;;;;;;3.87;1.87;;;;;;;8.48;100.00;100701.47;5243125;28;20028;-74
2023/12/30 20:06:39;;;;;;;3.03;1.43;;;;;;;8.44;100.00;100699.97;5253653;28;20021;-73
2023/12/30 20:09:10;;;;;;;5.43;1.50;;;;;;;8.42;100.00;100691.38;5246746;28;20017;-74
2023/12/30 20:11:42;;;;;;;3.20;1.37;;;;;;;8.41;100.00;100702.72;5250132;28;20027;-75
2023/12/30 20:14:15;;;;;;;4.10;1.47;;;;;;;8.43;100.00;100692.22;5243260;28;20017;-73
2023/12/30 20:16:46;;;;;;;4.93;1.73;;;;;;;8.48;100.00;100685.81;5246526;28;20029;-73
2023/12/30 20:19:18;;;;;;;5.17;1.57;;;;;;;8.47;100.00;100681.53;5248426;28;20026;-73
2023/12/30 20:21:49;;;;;;;5.13;2.10;;;;;;;8.42;100.00;100680.94;5252996;28;20056;-72
2023/12/30 20:24:20;;;;;;;5.10;1.80;;;;;;;8.48;100.00;100691.03;5252498;28;20021;-72
2023/12/30 20:26:54;;;;;;;3.27;1.50;;;;;;;8.41;100.00;100666.19;5246431;28;20361;-73
2023/12/30 20:29:25;;;;;;;4.87;2.03;;;;;;;8.47;100.00;100662.41;5252452;28;20562;-72
2023/12/30 20:31:57;;;;;;;3.73;1.57;;;;;;;8.51;100.00;100661.31;5254268;28;20066;-74
2023/12/30 20:34:28;;;;;;;2.47;1.30;;;;;;;8.53;100.00;100667.31;5252855;28;20037;-73
2023/12/30 20:37:02;;;;;;;5.27;1.50;;;;;;;8.57;100.00;100668.03;5252485;28;20029;-71
2023/12/30 20:39:34;;;;;;;7.55;1.88;;;;;;;8.61;100.00;100664.28;5253233;28;20045;-70
2023/12/30 20:42:05;;;;;;;3.27;1.60;;;;;;;8.52;100.00;100654.34;5253006;28;20442;-71
2023/12/30 20:44:37;;;;;;;2.47;1.50;;;;;;;8.49;100.00;100652.72;5240110;28;20030;-73
2023/12/30 20:47:09;;;;;;;4.27;1.70;;;;;;;8.47;100.00;100642.38;5238616;28;20040;-73
2023/12/30 20:49:43;;;;;;;4.37;1.50;;;;;;;8.49;100.00;100642.28;5250335;28;20464;-72
2023/12/30 20:52:14;;;;;;;3.60;1.70;;;;;;;8.48;100.00;100638.00;5247538;28;20044;-72
2023/12/30 20:54:46;;;;;;;4.40;1.53;;;;;;;8.48;100.00;100631.00;5241052;28;20028;-71
2023/12/30 20:57:17;;;;;;;5.07;1.60;;;;;;;8.51;100.00;100622.16;5248680;28;20053;-72
2023/12/30 20:59:48;;;;;;;3.60;1.43;;;;;;;8.48;100.00;100617.13;5241791;28;20049;-71
2023/12/30 21:02:20;;;;;;;3.90;1.40;;;;;;;8.48;100.00;100612.72;5242830;28;20022;-72
2023/12/30 21:04:52;;;;;;;4.53;1.53;;;;;;;8.47;100.00;100611.06;5239779;28;20029;-73
2023/12/30 21:07:23;;;;;;;5.80;2.07;;;;;;;8.42;100.00;100613.06;5235738;28;20033;-73
2023/12/30 21:09:54;;;;;;;5.00;2.00;;;;;;;8.40;100.00;100614.06;5248331;28;20754;-74
2023/12/30 21:12:26;;;;;;;4.30;1.90;;;;;;;8.39;100.00;100601.97;5237481;28;20032;-75
2023/12/30 21:14:58;;;;;;;3.07;2.00;;;;;;;8.47;100.00;100611.06;5251621;28;20030;-76
2023/12/30 21:17:29;;;;;;;3.50;1.87;;;;;;;8.43;100.00;100603.47;5237905;28;20082;-81
2023/12/30 21:20:00;;;;;;;5.30;1.87;;;;;;;8.45;100.00;100597.25;5239073;28;20036;-72
2023/12/30 21:22:32;;;;;;;5.33;1.90;;;;;;;8.40;100.00;100596.66;5243485;28;20124;-76
2023/12/30 21:25:03;;;;;;;4.00;2.73;;;;;;;8.40;100.00;100586.22;5250713;28;20518;-72
2023/12/30 21:27:34;;;;;;;7.07;3.87;;;;;;;8.40;100.00;100583.59;5254306;28;20106;-74
2023/12/30 21:30:06;;;;;;;6.23;2.27;;;;;;;8.36;100.00;100584.69;5254927;28;20033;-75
2023/12/30 21:32:38;;;;;;;6.33;3.20;;;;;;;8.35;100.00;100575.19;5244829;28;20040;-74
2023/12/30 21:35:10;;;;;;;6.37;3.33;;;;;;;8.33;100.00;100571.81;5253667;28;20017;-74
2023/12/30 21:37:41;;;;;;;4.40;2.57;;;;;;;8.40;100.00;100565.34;5254665;28;20098;-75
2023/12/30 21:40:16;;;;;;;3.30;2.63;;;;;;;8.34;100.00;100558.69;5255686;28;20036;-71
2023/12/30 21:42:47;;;;;;;3.63;2.22;;;;;;;8.34;100.00;100555.25;5251462;28;20033;-73
2023/12/30 21:45:18;;;;;;;2.90;2.20;;;;;;;8.27;100.00;100551.28;5249538;28;20589;-74
2023/12/30 21:47:50;;;;;;;3.13;1.50;;;;;;;8.33;100.00;100543.09;5245463;28;20033;-72
2023/12/30 21:50:21;;;;;;;5.23;1.77;;;;;;;8.43;100.00;100538.25;5246654;28;20040;-72
2023/12/30 21:52:53;;;;;;;4.10;2.60;;;;;;;8.29;100.00;100534.59;5245741;28;20079;-72
2023/12/30 21:55:24;;;;;;;2.77;1.50;;;;;;;8.34;100.00;100518.72;5249371;28;20022;-72
2023/12/30 21:57:55;;;;;;;4.47;1.60;;;;;;;8.29;100.00;100502.47;5236867;28;20521;-71
2023/12/30 22:00:26;;;;;;;3.67;1.23;;;;;;;8.35;100.00;100512.56;5237213;28;20054;-72
2023/12/30 22:02:58;;;;;;;4.03;1.97;;;;;;;8.33;100.00;100509.19;5246915;28;20024;-71
2023/12/30 22:05:29;;;;;;;2.33;1.23;;;;;;;8.43;100.00;100514.75;5235914;28;20104;-73
2023/12/30 22:08:00;;;;;;;3.17;1.60;;;;;;;8.36;100.00;100506.41;5245945;28;20387;-75
2023/12/30 22:10:32;;;;;;;2.90;1.73;;;;;;;8.41;100.00;100506.16;5242028;28;20071;-74
2023/12/30 22:13:03;;;;;;;5.33;1.80;;;;;;;8.33;100.00;100490.91;5235933;28;20021;-72
2023/12/30 22:15:34;;;;;;;2.07;1.30;;;;;;;8.39;100.00;100492.34;5238190;28;20021;-73
2023/12/30 22:18:06;;;;;;;2.73;1.40;;;;;;;8.33;100.00;100478.72;5244887;28;20035;-72
2023/12/30 22:20:37;;;;;;;3.80;1.37;;;;;;;8.40;100.00;100486.19;5255862;28;20048;-72
2023/12/30 22:23:11;;;;;;;2.63;1.23;;;;;;;8.34;100.00;100464.75;5254464;28;20013;-73
2023/12/30 22:25:42;;;;;;;5.10;1.73;;;;;;;8.41;100.00;100470.44;5257349;28;20020;-72
2023/12/30 22:28:13;;;;;;;2.40;1.70;;;;;;;8.45;100.00;100466.75;5240305;28;20022;-71
2023/12/30 22:30:45;;;;;;;3.27;1.77;;;;;;;8.47;100.00;100459.69;5252866;28;20507;-76
2023/12/30 22:33:16;;;;;;;2.00;1.00;;;;;;;8.53;100.00;100473.31;5245907;28;20043;-76
2023/12/30 22:35:48;;;;;;;2.50;1.20;;;;;;;8.44;100.00;100459.84;5248290;28;20079;-78
2023/12/30 22:38:19;;;;;;;6.00;1.73;;;;;;;8.47;100.00;100464.91;5250020;28;20029;-79
2023/12/30 22:40:50;;;;;;;1.37;0.90;;;;;;;8.40;100.00;100449.66;5247187;28;20038;-77
2023/12/30 22:43:22;;;;;;;2.63;1.07;;;;;;;8.48;100.00;100461.34;5238576;28;20437;-78
2023/12/30 22:45:53;;;;;;;2.87;1.33;;;;;;;8.48;100.00;100458.72;5234500;28;20056;-71
2023/12/30 22:48:24;;;;;;;2.23;0.90;;;;;;;8.45;100.00;100451.09;5236130;28;20294;-73
2023/12/30 22:50:55;;;;;;;2.40;1.33;;;;;;;8.38;100.00;100444.53;5239417;28;20029;-72
